^^
Datos históricos de la estación: Murcia-Puente Tocinos
Diario Informe para Enero 26, 2019 Unidades:  Ingés    Métrico   Ambas
Diario Semanal Mensual Anual
  Máxima: Mínima: Promedio:
Temperatura: 84 °F 73.6 °F 77.9 °F
Punto de rocio: 71.1 °F 66.2 °F 69.1 °F
Humedad: 87% 56.8% 75%
Velocidad viento: 13mph 0mph 5.4mph
Racha viento: 24.2mph - -
Viento- - ESE
Presión: 30 in 29.9 in -
Precipitación: 0 in    
 
 
Tabla de datos para Enero 26, 2019
Hora Temperatura Punto de rocio Presión Viento Velocidad viento Racha viento Humedad Intensidad lluvia(por hora) Nubes
00:04 76.3 °F 69.3 °F 30 in Calm   3.5 mph 79% 0 in
00:09 76.3 °F 69.3 °F 30 in NO 0.4 mph 3.1 mph 79% 0 in
00:14 76.3 °F 69.4 °F 30 in NO 1.4 mph 3.5 mph 79.2% 0 in
00:19 76.3 °F 69.6 °F 30 in NO 1.4 mph 3.5 mph 80% 0 in
00:24 76.1 °F 69.4 °F 30 in NO 1.4 mph 3 mph 80% 0 in
00:29 76.1 °F 69.4 °F 30 in NO 1.1 mph 3.1 mph 80% 0 in
00:34 76.1 °F 69.4 °F 30 in Calm   3.5 mph 80% 0 in
00:39 76.1 °F 69.4 °F 30 in Calm   3 mph 80% 0 in
00:44 76.1 °F 69.6 °F 30 in Calm   3.6 mph 80% 0 in
00:49 76.1 °F 69.8 °F 30 in Calm   4 mph 80.6% 0 in
00:54 75.9 °F 69.4 °F 30 in Calm   3.5 mph 80.3% 0 in
00:59 75.9 °F 69.3 °F 30 in NNO 0.4 mph 3.5 mph 80% 0 in
01:04 75.9 °F 69.3 °F 30 in NNO 1.4 mph 3 mph 80% 0 in
01:09 75.7 °F 69.4 °F 30 in North 1.5 mph 4.6 mph 80.7% 0 in
01:14 75.7 °F 69.4 °F 30 in North 1.8 mph 5 mph 81% 0 in
01:19 75.7 °F 69.4 °F 30 in North 1.9 mph 5 mph 81% 0 in
01:24 75.7 °F 69.4 °F 30 in North 2 mph 3 mph 81% 0 in
01:29 75.7 °F 69.4 °F 30 in North 1.5 mph 3 mph 81% 0 in
01:34 75.7 °F 69.4 °F 30 in Calm   3.1 mph 81% 0 in
01:39 75.6 °F 69.3 °F 30 in NNO 0.5 mph 4.6 mph 81% 0 in
01:44 75.6 °F 69.3 °F 30 in NO 1.8 mph 5 mph 81% 0 in
01:49 75.4 °F 69.3 °F 30 in NO 1.8 mph 5 mph 81.2% 0 in
01:54 75.4 °F 69.4 °F 30 in NNO 1.8 mph 5 mph 82% 0 in
01:59 75.4 °F 69.4 °F 30 in NNO 1.8 mph 5 mph 82% 0 in
02:04 75.2 °F 69.3 °F 30 in NNO 1.8 mph 2 mph 82% 0 in
02:09 75.2 °F 69.3 °F 30 in NNO 1.3 mph   82% 0 in
02:14 75.2 °F 69.4 °F 30 in Calm   4.3 mph 82.2% 0 in
02:19 75 °F 69.6 °F 30 in North 0.4 mph 5 mph 83% 0 in
02:24 75 °F 69.4 °F 30 in North 1.8 mph 5 mph 83% 0 in
02:29 75 °F 69.4 °F 30 in NNE 1.9 mph 5 mph 83% 0 in
02:34 75 °F 69.4 °F 30 in NNO 2 mph 5 mph 83% 0 in
02:39 75 °F 69.4 °F 30 in North 2 mph 5 mph 83% 0 in
02:44 75 °F 69.8 °F 30 in North 2 mph 4.6 mph 83.9% 0 in
02:49 74.8 °F 69.6 °F 30 in NNE 2.1 mph 5 mph 84% 0 in
02:54 74.8 °F 69.6 °F 29.9 in NE 2.4 mph 5 mph 84% 0 in
02:59 74.8 °F 69.6 °F 29.9 in NE 2.5 mph 5 mph 84% 0 in
03:04 74.8 °F 69.6 °F 30 in NE 2.9 mph 5 mph 84% 0 in
03:09 74.7 °F 69.6 °F 30 in NE 2.6 mph 5 mph 84% 0 in
03:14 74.7 °F 69.4 °F 30 in NE 1.8 mph 2.3 mph 84% 0 in
03:19 74.7 °F 69.6 °F 30 in NE 1.7 mph 3.5 mph 84.5% 0 in
03:24 74.7 °F 69.6 °F 30 in ENE 1.4 mph 3.6 mph 84.5% 0 in
03:29 74.7 °F 69.8 °F 30 in ENE 1.4 mph 4 mph 85% 0 in
03:34 74.8 °F 70 °F 30 in ENE 1.4 mph   85% 0 in
03:39 74.8 °F 70 °F 30 in ENE 1 mph   85% 0 in
03:44 74.8 °F 70 °F 30 in Calm     85% 0 in
03:49 74.8 °F 70 °F 30 in Calm     84.7% 0 in
03:54 75 °F 70 °F 30 in Calm   4.3 mph 84% 0 in
03:59 74.8 °F 69.8 °F 30 in NO 0.6 mph 5 mph 84% 0 in
04:04 74.8 °F 69.6 °F 30 in NO 1.8 mph 5 mph 84% 0 in
04:09 74.8 °F 69.6 °F 29.9 in NO 1.9 mph 4.6 mph 84% 0 in
04:14 74.8 °F 69.8 °F 29.9 in ONO 2 mph 5 mph 84.2% 0 in
04:19 74.7 °F 69.8 °F 30 in Oeste 2.1 mph 5 mph 85% 0 in
04:24 74.7 °F 69.8 °F 30 in Oeste 2.4 mph 5 mph 85% 0 in
04:29 74.7 °F 69.6 °F 30 in Oeste 2.4 mph 5 mph 84.4% 0 in
04:34 74.7 °F 69.8 °F 30 in ONO 2.4 mph 5 mph 84.9% 0 in
04:39 74.7 °F 69.6 °F 30 in ONO 1.8 mph 3.6 mph 84.1% 0 in
04:44 74.7 °F 69.4 °F 30 in Calm   4.6 mph 84% 0 in
04:49 74.7 °F 69.4 °F 30 in Oeste 0.6 mph 5 mph 84% 0 in
04:54 74.7 °F 69.4 °F 30 in Oeste 2.4 mph 4.6 mph 84% 0 in
04:59 74.7 °F 69.4 °F 30 in Oeste 2.1 mph 5 mph 84% 0 in
05:04 74.7 °F 69.4 °F 30 in Oeste 1.4 mph 3.1 mph 84% 0 in
05:09 74.7 °F 69.4 °F 29.9 in SE 1.4 mph 5.2 mph 84% 0 in
05:14 74.7 °F 69.4 °F 29.9 in Este 1.4 mph 5 mph 84% 0 in
05:19 74.7 °F 69.4 °F 29.9 in Este 1.5 mph 4.6 mph 84% 0 in
05:24 74.7 °F 69.8 °F 29.9 in Este 1.8 mph 5 mph 85% 0 in
05:29 74.5 °F 69.6 °F 29.9 in NE 1.9 mph 5 mph 85% 0 in
05:34 74.5 °F 69.6 °F 29.9 in NE 2 mph 3 mph 85% 0 in
05:39 74.5 °F 69.6 °F 29.9 in NE 1.5 mph   85% 0 in
05:44 74.5 °F 69.6 °F 29.9 in Calm     85% 0 in
05:49 74.5 °F 69.6 °F 29.9 in Calm   4.7 mph 85% 0 in
05:54 74.5 °F 69.6 °F 29.9 in Calm   5.2 mph 85% 0 in
05:59 74.3 °F 69.6 °F 29.9 in NE 0.9 mph 5 mph 85% 0 in
06:04 74.3 °F 69.4 °F 29.9 in NE 2.9 mph 3 mph 85% 0 in
06:09 74.3 °F 69.4 °F 29.9 in NE 2.1 mph   85% 0 in
06:14 74.3 °F 69.4 °F 29.9 in Calm     85% 0 in
06:19 74.1 °F 69.4 °F 29.9 in NE 0.4 mph 5.8 mph 85% 0 in
06:24 74.1 °F 69.3 °F 29.9 in ENE 1.8 mph 6 mph 85% 0 in
06:29 74.1 °F 69.3 °F 29.9 in ENE 1.9 mph 5 mph 85% 0 in
06:34 74.1 °F 69.3 °F 29.9 in NE 2 mph 3.6 mph 85% 0 in
06:39 73.9 °F 69.4 °F 29.9 in NE 1.9 mph 4 mph 85.7% 0 in
06:44 73.9 °F 69.4 °F 29.9 in NE 1.4 mph 3 mph 86% 0 in
06:49 73.9 °F 69.4 °F 29.9 in NE 1 mph 3.5 mph 86% 0 in
06:54 73.9 °F 69.4 °F 29.9 in Calm   3 mph 86% 0 in
06:59 73.9 °F 69.4 °F 29.9 in Calm   3 mph 86% 0 in
07:04 73.9 °F 69.4 °F 29.9 in Calm   3.1 mph 86% 0 in
07:09 73.9 °F 69.4 °F 29.9 in NE 0.4 mph 3.5 mph 86% 0 in
07:14 73.8 °F 69.3 °F 29.9 in North 1.4 mph 3.5 mph 86% 0 in
07:19 73.8 °F 69.3 °F 29.9 in North 1.4 mph 3 mph 86% 0 in
07:24 73.8 °F 69.3 °F 29.9 in North 1.4 mph   86% 0 in
07:29 73.8 °F 69.3 °F 29.9 in North 1 mph 2.9 mph 86% 0 in
07:34 73.8 °F 69.3 °F 29.9 in Calm   4.6 mph 86% 0 in
07:39 73.8 °F 69.3 °F 29.9 in NE 0.4 mph 5 mph 86% 0 in
07:44 73.6 °F 69.1 °F 29.9 in NE 1.8 mph 2 mph 86% 0 in
07:49 73.6 °F 69.1 °F 29.9 in NE 1.4 mph   86% 0 in
07:54 73.8 °F 69.3 °F 29.9 in Calm     86% 0 in
07:59 73.8 °F 69.3 °F 29.9 in Calm   4.7 mph 86% 0 in
08:04 73.8 °F 69.3 °F 29.9 in Calm   5 mph 86% 0 in
08:09 73.8 °F 69.3 °F 29.9 in ENE 0.5 mph 4 mph 86% 0 in
08:14 73.8 °F 69.3 °F 29.9 in NE 2 mph 4.7 mph 86% 0 in
08:19 73.8 °F 69.3 °F 29.9 in NNE 2.3 mph 5.8 mph 86% 0 in
08:24 73.6 °F 69.3 °F 29.9 in NNO 3.1 mph 6 mph 86.6% 0 in
08:29 73.8 °F 69.6 °F 29.9 in NNO 2.8 mph 5 mph 87% 0 in
08:34 73.8 °F 69.6 °F 29.9 in North 2 mph 5 mph 87% 0 in
08:39 73.8 °F 69.4 °F 29.9 in NNO 1.9 mph 4 mph 86% 0 in
08:44 74.1 °F 69.6 °F 29.9 in NNO 1.4 mph   86% 0 in
08:49 74.3 °F 69.8 °F 29.9 in NNO 1 mph   85.5% 0 in
08:54 74.7 °F 69.8 °F 29.9 in Calm     85% 0 in
08:59 75 °F 69.8 °F 29.9 in ESE 0.4 mph 5.2 mph 83.8% 0 in
09:04 75.6 °F 69.8 °F 29.9 in ENE 1.4 mph 8.1 mph 82.8% 0 in
09:09 75.6 °F 69.6 °F 29.9 in NE 2 mph 10.4 mph 82% 0 in
09:14 75.2 °F 69.3 °F 29.9 in NNE 3.6 mph 10.4 mph 82% 0 in
09:19 75 °F 69.3 °F 29.9 in ENE 3.8 mph 10 mph 82.6% 0 in
09:24 75 °F 69.3 °F 29.9 in NNE 4.3 mph 5.9 mph 82.5% 0 in
09:29 75.2 °F 69.3 °F 29.9 in NE 4 mph 6 mph 82% 0 in
09:34 75.4 °F 69.4 °F 29.9 in NE 2.9 mph 6 mph 82% 0 in
09:39 75.6 °F 69.6 °F 29.9 in NE 2.9 mph 9.2 mph 81.9% 0 in
09:44 75.7 °F 69.4 °F 29.9 in NE 2.9 mph 11.4 mph 81% 0 in
09:49 75.9 °F 69.4 °F 29.9 in NE 4.2 mph 17.3 mph 80.1% 0 in
09:54 76.5 °F 69.6 °F 29.9 in NE 8.1 mph 17 mph 79.2% 0 in
09:59 76.8 °F 69.6 °F 29.9 in NE 8.2 mph 16 mph 78.1% 0 in
10:04 77.2 °F 69.4 °F 29.9 in NE 8.5 mph 16.3 mph 77.1% 0 in
10:09 77.2 °F 69.4 °F 29.9 in NE 8.7 mph 16.1 mph 77% 0 in
10:14 77.4 °F 69.4 °F 29.9 in NE 9.2 mph 16 mph 77% 0 in
10:19 77.5 °F 69.6 °F 29.9 in NE 8.8 mph 13 mph 76.4% 0 in
10:24 77.5 °F 69.4 °F 29.9 in NE 7.4 mph 15 mph 76% 0 in
10:29 77.5 °F 69.4 °F 29.9 in NE 7.4 mph 15 mph 76% 0 in
10:34 77.5 °F 69.4 °F 29.9 in NE 7.4 mph 12 mph 76% 0 in
10:39 77.5 °F 69.4 °F 29.9 in NE 6.8 mph 10.4 mph 76% 0 in
10:44 78.1 °F 69.8 °F 29.9 in NE 5.4 mph 11.8 mph 75.7% 0 in
10:49 78.3 °F 69.6 °F 29.9 in NNE 5.7 mph 12 mph 75% 0 in
10:54 78.3 °F 69.6 °F 29.9 in NNE 6.4 mph 12 mph 75% 0 in
10:59 78.4 °F 69.6 °F 29.9 in NE 6.4 mph 12.7 mph 74.7% 0 in
11:04 78.4 °F 69.4 °F 30 in NE 6.4 mph 14 mph 74% 0 in
11:09 78.4 °F 69.6 °F 30 in NNE 6.4 mph 14 mph 74.2% 0 in
11:14 78.4 °F 69.8 °F 30 in NNE 6.4 mph 11 mph 74.8% 0 in
11:19 78.3 °F 69.6 °F 30 in NNE 6.5 mph 10.7 mph 75% 0 in
11:24 78.3 °F 69.6 °F 29.9 in NNE 6.9 mph 12.7 mph 75% 0 in
11:29 78.3 °F 69.8 °F 29.9 in NE 7.1 mph 16.8 mph 75% 0 in
11:34 78.6 °F 69.3 °F 29.9 in NNE 7.6 mph 17.3 mph 73.4% 0 in
11:39 79.2 °F 69.1 °F 29.9 in NE 8.3 mph 17.5 mph 71.1% 0 in
11:44 79.9 °F 68.7 °F 29.9 in NE 10 mph 17 mph 68.7% 0 in
11:49 80.2 °F 68.7 °F 29.9 in NE 10.3 mph 17.3 mph 67.8% 0 in
11:54 80.4 °F 68.9 °F 29.9 in NE 11.2 mph 17.8 mph 68% 0 in
11:59 80.8 °F 69.1 °F 29.9 in NE 10.9 mph 18.4 mph 67.7% 0 in
12:04 80.8 °F 68.7 °F 29.9 in NE 10.2 mph 18 mph 66.7% 0 in
12:09 81 °F 68.9 °F 29.9 in NE 10.1 mph 17.5 mph 67% 0 in
12:14 80.6 °F 68.5 °F 29.9 in NE 9.7 mph 18.5 mph 67% 0 in
12:19 80.4 °F 68.5 °F 29.9 in NE 10.2 mph 19 mph 67% 0 in
12:24 80.4 °F 68.2 °F 29.9 in NE 11.4 mph 18.4 mph 66.6% 0 in
12:29 80.4 °F 68.2 °F 29.9 in NE 11.5 mph 19.6 mph 66.3% 0 in
12:34 80.2 °F 68.4 °F 29.9 in NE 11.8 mph 20.8 mph 66.8% 0 in
12:39 80.2 °F 67.6 °F 29.9 in NE 11.8 mph 21 mph 65.4% 0 in
12:44 80.6 °F 68 °F 29.9 in NE 11.8 mph 21.3 mph 65.7% 0 in
12:49 80.6 °F 68.2 °F 29.9 in NE 11.3 mph 21 mph 66% 0 in
12:54 81 °F 68.4 °F 29.9 in NE 10 mph 16.1 mph 65.8% 0 in
12:59 81.1 °F 68 °F 29.9 in NE 9.6 mph 19.2 mph 64.4% 0 in
13:04 81.1 °F 67.3 °F 29.9 in NE 8.5 mph 20 mph 63% 0 in
13:09 81.3 °F 67.8 °F 29.9 in NE 8.9 mph 16 mph 63.9% 0 in
13:14 81.7 °F 68 °F 29.9 in NE 10 mph 18.4 mph 63.3% 0 in
13:19 81.9 °F 68.2 °F 29.9 in NE 10.6 mph 21.9 mph 63.2% 0 in
13:24 81.9 °F 68.7 °F 29.9 in NE 12.3 mph 24.2 mph 64.9% 0 in
13:29 81.9 °F 68.9 °F 29.9 in NE 12.5 mph 24.2 mph 64.9% 0 in
13:34 81.9 °F 68.7 °F 29.9 in NE 13 mph 24 mph 64.7% 0 in
13:39 81.7 °F 69.1 °F 29.9 in NE 12.5 mph 20.7 mph 65.5% 0 in
13:44 81.1 °F 69.1 °F 29.9 in NE 11.2 mph 21 mph 66.8% 0 in
13:49 81.1 °F 69.1 °F 29.9 in NE 10.6 mph 17 mph 66.9% 0 in
13:54 81.1 °F 68.5 °F 29.9 in NE 8.7 mph 19.2 mph 65.4% 0 in
13:59 81.3 °F 68 °F 29.9 in NE 9.3 mph 20 mph 64.1% 0 in
14:04 82 °F 67.6 °F 29.9 in NE 10.7 mph 19 mph 62.1% 0 in
14:09 82.6 °F 67.6 °F 29.9 in NE 10.1 mph 18.5 mph 60.5% 0 in
14:14 82.8 °F 67.1 °F 29.9 in ENE 8.5 mph 19 mph 59.3% 0 in
14:19 82.9 °F 67.1 °F 29.9 in NE 9.1 mph 19 mph 59% 0 in
14:24 83.1 °F 66.7 °F 29.9 in NE 10.7 mph 19 mph 58% 0 in
14:29 83.1 °F 67.1 °F 29.9 in NE 10.7 mph 21.3 mph 58.6% 0 in
14:34 83.1 °F 66.2 °F 29.9 in NE 10.7 mph 21 mph 56.9% 0 in
14:39 83.1 °F 66.2 °F 29.9 in NE 11.2 mph 21 mph 56.8% 0 in
14:44 83.3 °F 66.7 °F 29.9 in NE 12.5 mph 21 mph 57.4% 0 in
14:49 83.7 °F 67.1 °F 29.9 in NE 11.7 mph 19 mph 57.8% 0 in
14:54 83.7 °F 67.6 °F 29.9 in ENE 9.7 mph 19 mph 58.8% 0 in
14:59 83.7 °F 67.6 °F 29.9 in ENE 9.4 mph 19 mph 59.1% 0 in
15:04 83.7 °F 67.5 °F 29.9 in ENE 8.7 mph 17.5 mph 58.4% 0 in
15:09 83.7 °F 67.5 °F 29.9 in ENE 8.8 mph 18.4 mph 58.3% 0 in
15:14 83.8 °F 67.8 °F 29.9 in ENE 9.2 mph 18.4 mph 58.3% 0 in
15:19 83.8 °F 67.8 °F 29.9 in NE 9.3 mph 18.4 mph 58.6% 0 in
15:24 84 °F 68.2 °F 29.9 in ENE 9.7 mph 18 mph 59.4% 0 in
15:29 83.8 °F 68.4 °F 29.9 in NE 9.4 mph 19.2 mph 59.5% 0 in
15:34 83.7 °F 68 °F 29.9 in NE 8.5 mph 20 mph 59.4% 0 in
15:39 83.7 °F 68 °F 29.9 in NE 9.1 mph 22.5 mph 59.4% 0 in
15:44 83.8 °F 68 °F 29.9 in ENE 10.7 mph 23 mph 59% 0 in
15:49 83.7 °F 68.2 °F 29.9 in NE 10.6 mph 18 mph 59.4% 0 in
15:54 83.7 °F 67.5 °F 29.9 in ENE 10.2 mph 18.4 mph 58.5% 0 in
15:59 83.5 °F 67.6 °F 29.9 in NE 10.4 mph 18 mph 59% 0 in
16:04 83.7 °F 68 °F 29.9 in NE 10.7 mph 20.1 mph 59.3% 0 in
16:09 83.5 °F 68.4 °F 29.9 in NE 10.7 mph 21 mph 60.7% 0 in
16:14 82.9 °F 68.4 °F 29.9 in NE 10.7 mph 22.3 mph 61.5% 0 in
16:19 83.1 °F 68.5 °F 29.9 in NE 10.7 mph 22 mph 61.6% 0 in
16:24 83.5 °F 68.4 °F 29.9 in NE 10.7 mph 16.1 mph 60.4% 0 in
16:29 83.7 °F 68.5 °F 29.9 in NE 10.3 mph 19.7 mph 60.5% 0 in
16:34 83.3 °F 68 °F 29.9 in NE 9.2 mph 20 mph 60.1% 0 in
16:39 82.9 °F 67.8 °F 29.9 in NE 9.8 mph 21.9 mph 60.6% 0 in
16:44 82.8 °F 67.3 °F 29.9 in NE 11.4 mph 22 mph 59.6% 0 in
16:49 82.8 °F 67.6 °F 29.9 in NE 11.4 mph 20 mph 60.3% 0 in
16:54 82.9 °F 68.2 °F 29.9 in NE 11.2 mph 20.8 mph 61% 0 in
16:59 82.8 °F 68.4 °F 29.9 in NE 10.7 mph 21 mph 61.9% 0 in
17:04 82.6 °F 68.4 °F 29.9 in ENE 9.7 mph 21.3 mph 62.5% 0 in
17:09 82.2 °F 69.3 °F 29.9 in NE 9.6 mph 21 mph 64.9% 0 in
17:14 82 °F 69.6 °F 29.9 in ENE 9.2 mph 21 mph 66% 0 in
17:19 82 °F 69.4 °F 29.9 in ENE 9.1 mph 18.4 mph 65.6% 0 in
17:24 81.9 °F 69.1 °F 29.9 in NE 8.7 mph 18 mph 65.3% 0 in
17:29 81.9 °F 69.1 °F 29.9 in NE 8.7 mph 17.3 mph 65.2% 0 in
17:34 81.7 °F 68.7 °F 29.9 in NE 8.7 mph 18.1 mph 65% 0 in
17:39 81.5 °F 68.7 °F 29.9 in NE 9.1 mph 20.7 mph 65.4% 0 in
17:44 81.3 °F 68.5 °F 29.9 in NE 10.2 mph 21 mph 65.2% 0 in
17:49 81.1 °F 68.7 °F 29.9 in NE 10.6 mph 20 mph 66% 0 in
17:54 81.1 °F 68.5 °F 29.9 in NE 11.8 mph 20 mph 65.8% 0 in
17:59 81.1 °F 68.7 °F 29.9 in NE 11.3 mph 18 mph 66% 0 in
18:04 81.3 °F 68.4 °F 29.9 in NE 10.2 mph 16.3 mph 64.9% 0 in
18:09 81.1 °F 68.4 °F 29.9 in NE 9.9 mph 16.1 mph 65% 0 in
18:14 81.1 °F 68.4 °F 29.9 in NE 9.2 mph 16 mph 65% 0 in
18:19 81.1 °F 68.4 °F 29.9 in NE 8.8 mph 16.1 mph 65% 0 in
18:24 81.1 °F 68.4 °F 29.9 in NE 7.6 mph 16.1 mph 65% 0 in
18:29 81.3 °F 68.4 °F 29.9 in NE 7.7 mph 14 mph 65% 0 in
18:34 81.1 °F 68.4 °F 29.9 in NE 8.1 mph 15 mph 65% 0 in
18:39 81.1 °F 68.4 °F 29.9 in NE 8.2 mph 17.3 mph 65.2% 0 in
18:44 81 °F 68.4 °F 29.9 in NE 8.5 mph 17 mph 65.7% 0 in
18:49 81 °F 67.8 °F 29.9 in NE 8.6 mph 18.4 mph 64.5% 0 in
18:54 80.8 °F 67.6 °F 29.9 in NE 8.7 mph 18 mph 64.6% 0 in
18:59 80.8 °F 67.3 °F 29.9 in NE 9.4 mph 19.6 mph 63.4% 0 in
19:04 80.8 °F 66.9 °F 29.9 in NE 11.2 mph 20 mph 63% 0 in
19:09 80.6 °F 66.6 °F 29.9 in NE 10.9 mph 16.1 mph 62.6% 0 in
19:14 80.4 °F 66.2 °F 29.9 in NE 10 mph 16.1 mph 62% 0 in
19:19 80.4 °F 66.6 °F 29.9 in NE 9.8 mph 16 mph 62.7% 0 in
19:24 80.2 °F 66.6 °F 29.9 in NE 9.2 mph 15 mph 63% 0 in
19:29 80.2 °F 66.6 °F 29.9 in NNE 8.8 mph 14 mph 63% 0 in
19:34 80.2 °F 66.4 °F 29.9 in NE 7.6 mph 17.3 mph 63% 0 in
19:39 80.1 °F 66.6 °F 29.9 in NE 8.4 mph 20.7 mph 63.5% 0 in
19:44 79.9 °F 66.6 °F 29.9 in NE 10.7 mph 21 mph 64% 0 in
19:49 79.9 °F 67.1 °F 29.9 in NE 10.9 mph 20.8 mph 65.4% 0 in
19:54 79.5 °F 67.5 °F 29.9 in NE 11.4 mph 21 mph 66.7% 0 in
19:59 79.5 °F 68 °F 29.9 in NE 10.6 mph 16 mph 67.9% 0 in
20:04 79.3 °F 68 °F 29.9 in NE 8.7 mph 18.4 mph 68.3% 0 in
20:09 79.2 °F 68.4 °F 29.9 in NE 9 mph 18 mph 69.8% 0 in
20:14 79 °F 68.7 °F 29.9 in NE 10 mph 17.3 mph 71% 0 in
20:19 79 °F 69.1 °F 29.9 in NE 9.6 mph 16 mph 71.9% 0 in
20:24 78.8 °F 68.9 °F 29.9 in NNE 8.7 mph 16.3 mph 72% 0 in
20:29 78.6 °F 69.1 °F 29.9 in NE 8.4 mph 16 mph 72.9% 0 in
20:34 78.4 °F 69.1 °F 29.9 in NE 7.6 mph 15 mph 73% 0 in
20:39 78.4 °F 69.1 °F 29.9 in NE 7.6 mph 15 mph 73% 0 in
20:44 78.4 °F 69.1 °F 29.9 in NE 7.6 mph 12.7 mph 73% 0 in
20:49 78.3 °F 69.3 °F 29.9 in NE 7.4 mph 13 mph 73.8% 0 in
20:54 78.3 °F 69.3 °F 29.9 in NE 6.9 mph 12 mph 74% 0 in
20:59 78.3 °F 69.3 °F 29.9 in NE 6.7 mph 11 mph 74% 0 in
21:04 78.3 °F 69.3 °F 29.9 in NE 6.2 mph 12.7 mph 74% 0 in
21:09 78.1 °F 69.1 °F 29.9 in NE 6.2 mph 13.8 mph 74% 0 in
21:14 78.1 °F 69.1 °F 29.9 in NE 6.2 mph 14 mph 74% 0 in
21:19 78.1 °F 69.1 °F 29.9 in NE 6.1 mph 12 mph 74% 0 in
21:24 77.9 °F 69.3 °F 29.9 in NNE 5.9 mph 9 mph 74.9% 0 in
21:29 77.7 °F 69.3 °F 29.9 in NE 5.5 mph 8.1 mph 75% 0 in
21:34 77.7 °F 69.3 °F 29.9 in NNE 4.3 mph 7 mph 75% 0 in
21:39 77.5 °F 69.1 °F 29.9 in North 4 mph 5.2 mph 75% 0 in
21:44 77.5 °F 69.1 °F 29.9 in NNO 3.1 mph 5.9 mph 75% 0 in
21:49 77.7 °F 69.3 °F 29.9 in NE 2.8 mph 6 mph 75% 0 in
21:54 77.7 °F 69.3 °F 29.9 in NE 2 mph 3.6 mph 75.1% 0 in
21:59 77.7 °F 69.4 °F 29.9 in ENE 2 mph 5.2 mph 75.4% 0 in
22:04 77.9 °F 69.6 °F 29.9 in Este 2 mph 10.4 mph 75.8% 0 in
22:09 77.9 °F 69.8 °F 29.9 in ENE 3.1 mph 13.8 mph 76.2% 0 in
22:14 77.7 °F 70 °F 29.9 in ENE 6.2 mph 14 mph 77.4% 0 in
22:19 77.7 °F 70.3 °F 29.9 in ONO 5.7 mph 9 mph 78.1% 0 in
22:24 77.5 °F 70.2 °F 29.9 in NO 4.3 mph 7 mph 78.3% 0 in
22:29 77.5 °F 70.5 °F 29.9 in NNO 4 mph 6 mph 79% 0 in
22:34 77.5 °F 70.3 °F 29.9 in NO 2.9 mph 5.9 mph 79% 0 in
22:39 77.4 °F 70.5 °F 29.9 in NO 2.7 mph 6 mph 79.5% 0 in
22:44 77.4 °F 70.7 °F 29.9 in NO 2.4 mph 5 mph 80% 0 in
22:49 77.2 °F 70.5 °F 29.9 in North 2.2 mph 5 mph 80% 0 in
22:54 77.2 °F 70.5 °F 29.9 in ONO 1.8 mph 4 mph 80% 0 in
22:59 77.2 °F 70.5 °F 29.9 in NO 1.7 mph 4 mph 80% 0 in
23:04 77.2 °F 70.5 °F 29.9 in NO 1.4 mph 4 mph 80% 0 in
23:09 77.2 °F 70.5 °F 29.9 in ONO 1.5 mph 4.6 mph 80% 0 in
23:14 77.2 °F 70.5 °F 29.9 in Oeste 1.8 mph 5.2 mph 80% 0 in
23:19 77.4 °F 70.5 °F 29.9 in ONO 2 mph 5.9 mph 80% 0 in
23:24 77.4 °F 70.7 °F 29.9 in NO 2.4 mph 6 mph 80% 0 in
23:29 77.4 °F 70.7 °F 29.9 in NNO 2.6 mph 5.2 mph 80% 0 in
23:34 77.4 °F 70.9 °F 29.9 in NNO 3.1 mph 5.2 mph 80.6% 0 in
23:39 77.2 °F 70.9 °F 29.9 in NO 3.1 mph 5.9 mph 81% 0 in
23:44 77.2 °F 70.9 °F 29.9 in NNE 3.1 mph 6.4 mph 80.9% 0 in
23:49 77.2 °F 70.7 °F 29.9 in NE 3.1 mph 7 mph 80.5% 0 in
23:54 77.4 °F 70.9 °F 29.9 in NNE 3.1 mph 6.9 mph 80.6% 0 in
23:59 77.4 °F 71.1 °F 29.9 in North 3.1 mph 7 mph 80.7% 0 in
Murcia-Puente Tocinos, España
Compliments of Weather Underground - 3 mb

La estación de MeteoMurcia.com, publica sus datos en los siguientes proyectos:

Weather Underground PWS IMURCIAP2 Meteoclimatic www.awekas.at

W3Counter
Web Analytics